Time;durP1;ratioP1;P1;durP2;ratioP2;P2;SDS_P1;SDS_P2;PMS_P1;PMS_P2;Temp;Humidity;BMP_temperature;BMP_pressure;BME280_temperature;BME280_humidity;BME280_pressure;Samples;Min_cycle;Max_cycle;Signal;HPM_P1;HPM_P2
2021/12/08 00:00:39;;;;;;;4.22;1.80;;;5.00;99.90;;;;;;5068262;28;20183;-60
2021/12/08 00:03:10;;;;;;;2.70;1.55;;;5.00;99.90;;;;;;5065732;28;20620;-62
2021/12/08 00:05:39;;;;;;;5.57;1.98;;;5.00;99.90;;;;;;5056946;28;20681;-62
2021/12/08 00:08:10;;;;;;;2.08;1.67;;;5.00;99.90;;;;;;5059118;28;20220;-60
2021/12/08 00:13:27;;;;;;;2.78;1.40;;;5.10;99.90;;;;;;5061618;28;20208;-63
2021/12/08 00:15:58;;;;;;;1.95;1.30;;;5.10;99.90;;;;;;5065826;28;20607;-63
2021/12/08 00:18:29;;;;;;;1.85;1.35;;;5.10;99.90;;;;;;5063702;28;20228;-61
2021/12/08 00:21:00;;;;;;;3.55;1.20;;;5.10;99.90;;;;;;5066847;28;20196;-61
2021/12/08 00:23:30;;;;;;;1.52;1.30;;;5.10;99.90;;;;;;5063429;28;20307;-63
2021/12/08 00:25:59;;;;;;;2.60;1.40;;;5.10;99.90;;;;;;5059429;28;20567;-62
2021/12/08 00:28:29;;;;;;;4.10;1.60;;;5.10;99.90;;;;;;5058553;28;20220;-61
2021/12/08 00:30:59;;;;;;;2.03;1.40;;;5.20;99.90;;;;;;5058872;28;20200;-61
2021/12/08 00:33:29;;;;;;;1.10;1.00;;;5.30;99.90;;;;;;5067941;28;20234;-63
2021/12/08 00:36:01;;;;;;;1.38;1.00;;;5.20;99.90;;;;;;5054488;28;20239;-62
2021/12/08 00:38:31;;;;;;;2.95;1.55;;;5.20;99.90;;;;;;5052063;28;20571;-61
2021/12/08 00:40:59;;;;;;;1.30;1.17;;;5.20;99.90;;;;;;5057373;28;20189;-61
2021/12/08 00:43:28;;;;;;;2.30;1.40;;;5.30;99.90;;;;;;5063339;28;20250;-61
2021/12/08 00:45:56;;;;;;;2.38;1.55;;;5.30;99.90;;;;;;5057481;28;20200;-61
2021/12/08 00:48:24;;;;;;;2.10;1.55;;;5.40;99.90;;;;;;5057666;28;20221;-61
2021/12/08 00:50:53;;;;;;;2.00;1.20;;;5.30;99.90;;;;;;5072718;28;20199;-61
2021/12/08 00:53:22;;;;;;;3.85;1.20;;;5.40;99.90;;;;;;5055758;28;20865;-63
2021/12/08 00:55:51;;;;;;;1.80;1.05;;;5.40;99.90;;;;;;5060592;28;20184;-62
2021/12/08 00:58:19;;;;;;;0.60;0.60;;;5.40;99.90;;;;;;5065797;28;20215;-60
2021/12/08 01:00:51;;;;;;;1.70;0.98;;;5.40;99.90;;;;;;5057222;28;20183;-60
2021/12/08 01:03:20;;;;;;;1.05;0.93;;;5.50;99.90;;;;;;5060875;28;20220;-63
2021/12/08 01:05:50;;;;;;;2.30;1.00;;;5.50;99.90;;;;;;5067512;28;20208;-62
2021/12/08 01:08:19;;;;;;;2.50;1.00;;;5.50;99.90;;;;;;5062446;28;20269;-61
2021/12/08 01:10:50;;;;;;;1.63;1.05;;;5.40;99.90;;;;;;5055799;28;20188;-62
2021/12/08 01:13:21;;;;;;;2.42;0.98;;;5.50;99.90;;;;;;5063485;28;20217;-62
2021/12/08 01:15:51;;;;;;;1.20;0.70;;;5.50;99.90;;;;;;5052625;28;20662;-62
2021/12/08 01:18:21;;;;;;;1.35;0.60;;;5.60;99.90;;;;;;5053177;28;20224;-61
2021/12/08 01:20:50;;;;;;;0.90;0.80;;;5.50;99.90;;;;;;5061214;28;20191;-61
2021/12/08 01:23:19;;;;;;;4.25;1.10;;;5.50;99.90;;;;;;5054626;28;20247;-62
2021/12/08 01:25:47;;;;;;;0.77;0.50;;;5.50;99.90;;;;;;5056442;28;20241;-61
2021/12/08 01:28:19;;;;;;;1.00;0.90;;;5.50;99.90;;;;;;5064697;28;20204;-62
2021/12/08 01:30:49;;;;;;;0.70;0.60;;;5.50;99.90;;;;;;5055649;28;20287;-62
2021/12/08 01:33:18;;;;;;;0.90;0.63;;;5.50;99.90;;;;;;5061878;28;20216;-62
2021/12/08 01:35:47;;;;;;;3.65;1.00;;;5.60;99.90;;;;;;5063793;28;20673;-62
2021/12/08 01:38:15;;;;;;;1.10;0.63;;;5.60;99.90;;;;;;5052121;28;20588;-61
2021/12/08 01:40:44;;;;;;;1.00;0.70;;;5.70;99.90;;;;;;5062506;28;20188;-61
2021/12/08 01:43:24;;;;;;;1.02;0.90;;;5.70;99.90;;;;;;5054092;28;20216;-62
2021/12/08 01:46:00;;;;;;;1.00;0.63;;;5.70;99.90;;;;;;5056751;28;20589;-63
2021/12/08 01:48:32;;;;;;;1.42;0.80;;;5.80;99.90;;;;;;5069409;28;20269;-61
2021/12/08 01:51:05;;;;;;;1.80;0.90;;;5.80;99.90;;;;;;5053996;28;20654;-61
2021/12/08 01:53:34;;;;;;;1.85;1.00;;;5.80;99.90;;;;;;5067345;28;20212;-62
2021/12/08 01:56:04;;;;;;;0.82;0.70;;;5.80;99.90;;;;;;5070099;28;20274;-62
2021/12/08 01:58:33;;;;;;;2.45;1.13;;;5.80;99.90;;;;;;5052951;28;20609;-61
2021/12/08 02:01:05;;;;;;;1.88;0.80;;;5.80;99.90;;;;;;5065798;28;20191;-61
2021/12/08 02:03:35;;;;;;;1.35;0.88;;;5.80;99.90;;;;;;5063767;28;20678;-63
2021/12/08 02:06:06;;;;;;;1.00;0.70;;;5.90;99.90;;;;;;5066129;28;20658;-62
2021/12/08 02:08:35;;;;;;;3.40;0.85;;;5.90;99.90;;;;;;5058051;28;20224;-62
2021/12/08 02:11:05;;;;;;;1.70;0.65;;;5.90;99.90;;;;;;5052492;28;20284;-60
2021/12/08 02:13:37;;;;;;;0.98;0.70;;;6.00;99.90;;;;;;5066969;28;20207;-63
2021/12/08 02:16:10;;;;;;;1.05;0.70;;;6.10;99.90;;;;;;5055859;28;20287;-61
2021/12/08 02:18:38;;;;;;;1.00;0.90;;;6.10;99.90;;;;;;5055275;28;20247;-61
2021/12/08 02:21:21;;;;;;;2.05;0.82;;;6.00;99.90;;;;;;5046818;28;20250;-62
2021/12/08 02:23:49;;;;;;;0.80;0.73;;;6.00;99.90;;;;;;5063859;28;20219;-62
2021/12/08 02:26:18;;;;;;;2.53;1.08;;;6.10;99.90;;;;;;5068895;28;20188;-63
2021/12/08 02:28:47;;;;;;;1.52;0.95;;;6.00;99.90;;;;;;5054535;28;20701;-61
2021/12/08 02:31:20;;;;;;;4.30;1.10;;;6.00;99.90;;;;;;5058739;28;20184;-61
2021/12/08 02:47:52;;;;;;;3.30;1.10;;;6.10;99.90;;;;;;5063928;28;20227;-62
2021/12/08 02:50:24;;;;;;;1.75;1.30;;;6.10;99.90;;;;;;5073520;28;20273;-61
2021/12/08 02:52:54;;;;;;;2.08;1.30;;;6.20;99.90;;;;;;5063891;28;20788;-61
2021/12/08 02:55:22;;;;;;;2.72;1.30;;;6.10;99.90;;;;;;5063889;28;20646;-63
2021/12/08 02:57:50;;;;;;;6.68;1.13;;;6.10;99.90;;;;;;5061393;28;20247;-62
2021/12/08 03:00:23;;;;;;;4.80;1.40;;;6.10;99.90;;;;;;5071459;28;20303;-61
2021/12/08 03:02:54;;;;;;;2.80;1.45;;;6.20;99.90;;;;;;5070409;28;20597;-60
2021/12/08 03:05:22;;;;;;;3.47;1.00;;;6.20;99.90;;;;;;5063624;28;20188;-63
2021/12/08 03:07:51;;;;;;;2.40;1.52;;;6.20;99.90;;;;;;5061682;28;20220;-63
2021/12/08 03:10:22;;;;;;;3.15;1.40;;;6.20;99.90;;;;;;5056259;28;20216;-61
2021/12/08 03:12:51;;;;;;;5.20;1.80;;;6.20;99.90;;;;;;5066222;28;20571;-61
2021/12/08 03:15:19;;;;;;;6.10;1.75;;;6.20;99.90;;;;;;5054910;28;20204;-62
2021/12/08 03:17:48;;;;;;;4.85;1.77;;;6.30;99.90;;;;;;5063284;28;20212;-62
2021/12/08 03:20:21;;;;;;;4.80;1.73;;;6.30;99.90;;;;;;5055530;28;20207;-61
2021/12/08 03:22:52;;;;;;;9.00;2.40;;;6.20;99.90;;;;;;5068376;28;20251;-61
2021/12/08 03:25:23;;;;;;;7.53;2.40;;;6.20;99.90;;;;;;5057123;28;20204;-63
2021/12/08 03:28:04;;;;;;;27.08;5.10;;;6.20;99.90;;;;;;5058108;28;20227;-63
2021/12/08 03:30:38;;;;;;;3.58;2.00;;;6.20;99.90;;;;;;5055921;28;20710;-62
2021/12/08 03:33:08;;;;;;;4.15;2.05;;;6.20;99.90;;;;;;5063664;28;20214;-61
2021/12/08 03:35:36;;;;;;;2.90;1.60;;;6.10;99.90;;;;;;5071692;28;20200;-62
2021/12/08 03:38:07;;;;;;;1.63;1.20;;;6.10;99.90;;;;;;5059332;28;20209;-62
2021/12/08 03:40:36;;;;;;;4.13;1.50;;;6.10;99.90;;;;;;5066181;28;20566;-61
2021/12/08 03:43:04;;;;;;;2.30;1.20;;;6.10;99.90;;;;;;5065124;28;20563;-61
2021/12/08 03:45:36;;;;;;;2.10;1.10;;;6.00;99.90;;;;;;5064536;28;20193;-63
2021/12/08 03:48:08;;;;;;;4.18;2.00;;;6.00;99.90;;;;;;5065034;28;20243;-62
2021/12/08 03:50:41;;;;;;;1.95;1.35;;;6.10;99.90;;;;;;5062321;28;20196;-60
2021/12/08 03:53:12;;;;;;;4.10;1.65;;;6.10;99.90;;;;;;5058182;28;20588;-61
2021/12/08 03:55:42;;;;;;;5.90;2.35;;;6.10;99.90;;;;;;5061793;28;20193;-62
2021/12/08 03:58:11;;;;;;;4.03;1.80;;;6.20;99.90;;;;;;5054653;28;20227;-62
2021/12/08 04:00:41;;;;;;;5.88;1.63;;;6.20;99.90;;;;;;5054464;28;20689;-60
2021/12/08 04:03:11;;;;;;;4.50;1.70;;;6.30;99.90;;;;;;5067139;28;20217;-61
2021/12/08 04:05:45;;;;;;;4.57;1.70;;;6.20;99.90;;;;;;5071644;28;20184;-62
2021/12/08 04:08:20;;;;;;;5.68;2.40;;;6.20;99.90;;;;;;5064495;28;20690;-62
2021/12/08 04:10:51;;;;;;;5.10;1.55;;;6.20;99.90;;;;;;5058046;28;20199;-61
2021/12/08 04:13:29;;;;;;;5.55;2.40;;;6.30;99.90;;;;;;5057545;28;20224;-61
2021/12/08 04:15:59;;;;;;;4.47;1.77;;;6.30;99.90;;;;;;5054609;28;20221;-62
2021/12/08 04:18:27;;;;;;;5.32;1.77;;;6.30;99.90;;;;;;5054003;28;20223;-62
2021/12/08 04:20:58;;;;;;;4.68;1.80;;;6.30;99.90;;;;;;5061213;28;20585;-61
2021/12/08 04:23:32;;;;;;;4.15;1.80;;;6.20;99.90;;;;;;5061569;28;20678;-61
2021/12/08 04:26:06;;;;;;;8.02;2.05;;;6.20;99.90;;;;;;5064019;28;20198;-62
2021/12/08 04:28:35;;;;;;;5.35;3.10;;;6.10;99.90;;;;;;5061673;28;20216;-62
2021/12/08 04:31:07;;;;;;;6.88;1.65;;;6.00;99.90;;;;;;5058276;28;20743;-60
2021/12/08 04:33:36;;;;;;;4.00;2.10;;;6.00;99.90;;;;;;5060736;28;20629;-62
2021/12/08 04:36:10;;;;;;;5.38;1.98;;;6.00;99.90;;;;;;5053964;28;20191;-62
2021/12/08 04:38:43;;;;;;;7.60;4.25;;;6.00;99.90;;;;;;5065481;28;20232;-62
2021/12/08 04:41:26;;;;;;;3.35;2.55;;;5.80;99.90;;;;;;5056317;28;20283;-61
2021/12/08 04:44:03;;;;;;;4.35;1.83;;;5.70;99.90;;;;;;5062754;28;20694;-62
2021/12/08 04:46:52;;;;;;;7.65;4.03;;;5.70;99.90;;;;;;5057208;28;20195;-63
2021/12/08 04:49:39;;;;;;;6.22;3.90;;;5.60;99.90;;;;;;5056324;28;20227;-61
2021/12/08 04:52:16;;;;;;;9.93;3.85;;;5.60;99.90;;;;;;5064602;28;20192;-61
2021/12/08 05:00:45;;;;;;;11.32;7.32;;;5.40;99.90;;;;;;5068573;28;20234;-61
2021/12/08 05:03:36;;;;;;;7.85;4.70;;;5.30;99.90;;;;;;5064574;28;20306;-62
2021/12/08 05:06:19;;;;;;;13.93;5.97;;;5.30;99.90;;;;;;5062294;28;20191;-62
2021/12/08 05:08:51;;;;;;;9.02;3.47;;;5.20;99.90;;;;;;5061874;28;20227;-62
2021/12/08 05:11:22;;;;;;;5.43;3.50;;;5.20;99.90;;;;;;5061330;28;20199;-61
2021/12/08 05:13:56;;;;;;;6.72;3.70;;;5.20;99.90;;;;;;5055183;28;20222;-60
2021/12/08 05:16:26;;;;;;;14.60;3.60;;;5.10;99.90;;;;;;5062826;28;20313;-62
2021/12/08 05:18:57;;;;;;;8.40;3.08;;;5.10;99.90;;;;;;5064376;28;20594;-63
2021/12/08 05:21:32;;;;;;;7.35;2.47;;;5.10;99.90;;;;;;5054495;28;20191;-61
2021/12/08 05:24:08;;;;;;;6.78;3.00;;;5.00;99.90;;;;;;5051909;28;20220;-62
2021/12/08 05:26:39;;;;;;;5.60;2.80;;;4.90;99.90;;;;;;5068360;28;20200;-62
2021/12/08 05:29:13;;;;;;;6.15;2.20;;;5.00;99.90;;;;;;5052570;28;20354;-62
2021/12/08 05:31:43;;;;;;;3.60;1.42;;;5.00;99.90;;;;;;5069155;28;20195;-61
2021/12/08 05:34:12;;;;;;;8.02;2.72;;;5.10;99.90;;;;;;5063767;28;20224;-61
2021/12/08 05:36:41;;;;;;;2.85;2.55;;;5.30;99.90;;;;;;5069633;28;20281;-64
2021/12/08 05:39:16;;;;;;;2.60;2.40;;;5.30;99.90;;;;;;5052590;28;20274;-63
2021/12/08 05:41:45;;;;;;;4.00;1.92;;;5.30;99.90;;;;;;5064078;28;20191;-61
2021/12/08 05:44:15;;;;;;;4.28;2.50;;;5.30;99.90;;;;;;5054328;28;20224;-62
2021/12/08 05:46:46;;;;;;;3.45;2.05;;;5.30;99.90;;;;;;5055809;28;20231;-62
2021/12/08 05:49:17;;;;;;;7.05;2.83;;;5.30;99.90;;;;;;5059143;28;20223;-62
2021/12/08 05:51:47;;;;;;;3.95;2.40;;;5.20;99.90;;;;;;5060304;28;20239;-62
2021/12/08 05:54:18;;;;;;;4.20;1.75;;;5.30;99.90;;;;;;5051950;28;20227;-61
2021/12/08 05:56:48;;;;;;;7.93;2.25;;;5.20;99.90;;;;;;5056762;28;20180;-62
2021/12/08 05:59:18;;;;;;;5.45;2.30;;;5.20;99.90;;;;;;5057322;28;20219;-61
2021/12/08 06:01:51;;;;;;;6.38;2.85;;;5.20;99.90;;;;;;5052963;28;20189;-61
2021/12/08 06:04:22;;;;;;;5.45;2.22;;;5.20;99.90;;;;;;5053230;28;20227;-61
2021/12/08 06:06:50;;;;;;;8.45;2.13;;;5.30;99.90;;;;;;5064062;28;20609;-63
2021/12/08 06:09:21;;;;;;;5.63;2.33;;;5.40;99.90;;;;;;5062282;28;20586;-63
2021/12/08 06:11:49;;;;;;;3.13;1.50;;;5.40;99.90;;;;;;5052401;28;20239;-61
2021/12/08 06:14:22;;;;;;;6.38;1.77;;;5.40;99.90;;;;;;5055361;28;20630;-61
2021/12/08 06:16:51;;;;;;;7.22;4.22;;;5.50;99.90;;;;;;5064438;28;20646;-62
2021/12/08 06:19:20;;;;;;;3.67;2.38;;;5.40;99.90;;;;;;5058414;28;20215;-62
2021/12/08 06:21:49;;;;;;;5.57;2.38;;;5.40;99.90;;;;;;5069931;28;20203;-61
2021/12/08 06:24:19;;;;;;;7.85;2.75;;;5.40;99.90;;;;;;5069325;28;20228;-61
2021/12/08 06:26:50;;;;;;;5.72;2.08;;;5.40;99.90;;;;;;5056140;28;20196;-63
2021/12/08 06:29:21;;;;;;;6.80;3.00;;;5.30;99.90;;;;;;5066116;28;20215;-62
2021/12/08 06:31:53;;;;;;;6.63;2.63;;;5.40;99.90;;;;;;5069738;28;20531;-61
2021/12/08 06:34:23;;;;;;;5.70;2.03;;;5.40;99.90;;;;;;5051816;28;20227;-60
2021/12/08 06:36:54;;;;;;;3.65;2.45;;;5.40;99.90;;;;;;5063781;28;20269;-63
2021/12/08 06:39:26;;;;;;;4.80;1.90;;;5.50;99.90;;;;;;5055800;28;20269;-62
2021/12/08 06:41:57;;;;;;;6.43;2.60;;;5.40;99.90;;;;;;5068625;28;20245;-61
2021/12/08 06:44:31;;;;;;;4.28;2.97;;;5.30;99.90;;;;;;5059501;28;20250;-61
2021/12/08 06:47:02;;;;;;;12.18;4.05;;;5.30;99.90;;;;;;5056178;28;20196;-63
2021/12/08 06:49:30;;;;;;;11.45;4.13;;;5.30;99.90;;;;;;5052758;28;20244;-63
2021/12/08 06:52:02;;;;;;;8.13;2.70;;;5.30;99.90;;;;;;5062455;28;20188;-60
2021/12/08 06:54:34;;;;;;;5.85;3.00;;;5.30;99.90;;;;;;5060951;28;20215;-60
2021/12/08 06:57:06;;;;;;;5.57;3.30;;;5.30;99.90;;;;;;5062315;28;20204;-62
2021/12/08 06:59:50;;;;;;;6.45;3.35;;;5.30;99.90;;;;;;5061192;28;20281;-63
2021/12/08 07:02:34;;;;;;;4.80;2.38;;;5.20;99.90;;;;;;5061012;28;20184;-61
2021/12/08 07:05:12;;;;;;;4.97;2.58;;;5.20;99.90;;;;;;5057237;28;20285;-62
2021/12/08 07:07:44;;;;;;;6.10;3.47;;;5.30;99.90;;;;;;5059939;28;20212;-62
2021/12/08 07:10:20;;;;;;;4.30;2.53;;;5.30;99.90;;;;;;5064644;28;20218;-62
2021/12/08 07:12:53;;;;;;;4.95;1.58;;;5.20;99.90;;;;;;5061325;28;20306;-61
2021/12/08 07:15:26;;;;;;;4.75;2.55;;;5.20;99.90;;;;;;5066639;28;20195;-62
2021/12/08 07:17:59;;;;;;;9.23;2.80;;;5.20;99.90;;;;;;5056700;28;20228;-62
2021/12/08 07:20:42;;;;;;;7.07;2.58;;;5.20;99.90;;;;;;5060644;28;20270;-61
2021/12/08 07:23:14;;;;;;;8.02;2.35;;;5.10;99.90;;;;;;5057091;28;20783;-61
2021/12/08 07:25:44;;;;;;;4.10;2.78;;;5.20;99.90;;;;;;5055498;28;20253;-60
2021/12/08 07:28:16;;;;;;;3.25;1.63;;;5.30;99.90;;;;;;5067948;28;20221;-62
2021/12/08 07:30:49;;;;;;;4.63;1.90;;;5.20;99.90;;;;;;5054837;28;20200;-62
2021/12/08 07:33:17;;;;;;;4.07;2.13;;;5.10;99.90;;;;;;5070151;28;20311;-61
2021/12/08 07:35:49;;;;;;;10.15;2.15;;;5.10;99.90;;;;;;5065636;28;20199;-61
2021/12/08 07:38:21;;;;;;;3.97;2.13;;;5.10;99.90;;;;;;5062755;28;20219;-61
2021/12/08 07:40:54;;;;;;;20.95;2.97;;;5.00;99.90;;;;;;5069611;28;20562;-61
2021/12/08 07:43:26;;;;;;;4.35;2.10;;;5.10;99.90;;;;;;5071052;28;20218;-61
2021/12/08 07:46:03;;;;;;;5.95;2.70;;;5.00;99.90;;;;;;5073696;28;20241;-60
2021/12/08 07:48:36;;;;;;;5.10;2.58;;;5.00;99.90;;;;;;5061164;28;20698;-62
2021/12/08 07:51:08;;;;;;;7.90;2.40;;;5.00;99.90;;;;;;5053858;28;20223;-60
2021/12/08 07:53:36;;;;;;;9.85;3.00;;;5.10;99.90;;;;;;5067691;28;20286;-60
2021/12/08 07:56:09;;;;;;;9.25;2.35;;;5.10;99.90;;;;;;5073819;28;20290;-61
2021/12/08 07:58:40;;;;;;;7.20;1.88;;;5.20;99.90;;;;;;5068726;28;20220;-61
2021/12/08 08:01:12;;;;;;;7.32;2.30;;;5.20;99.90;;;;;;5073767;28;20187;-61
2021/12/08 08:03:42;;;;;;;10.55;2.35;;;5.30;99.90;;;;;;5072009;28;20293;-61
2021/12/08 08:06:15;;;;;;;5.65;2.45;;;5.30;99.90;;;;;;5057274;28;20261;-60
2021/12/08 08:08:43;;;;;;;10.32;3.10;;;5.40;99.90;;;;;;5060836;28;20220;-62
2021/12/08 08:11:17;;;;;;;10.98;2.20;;;5.40;99.90;;;;;;5064627;28;20208;-61
2021/12/08 08:13:45;;;;;;;6.43;2.20;;;5.30;99.90;;;;;;5066225;28;20214;-61
2021/12/08 08:16:20;;;;;;;4.38;2.22;;;5.30;99.90;;;;;;5060279;28;20712;-60
2021/12/08 08:18:54;;;;;;;6.50;2.65;;;5.30;99.90;;;;;;5061466;28;20222;-62
2021/12/08 08:21:26;;;;;;;11.93;2.70;;;5.40;99.90;;;;;;5059537;28;20211;-61
2021/12/08 08:23:55;;;;;;;7.15;1.83;;;5.50;99.90;;;;;;5064393;28;20242;-61
2021/12/08 08:26:24;;;;;;;9.05;2.40;;;5.50;99.90;;;;;;5067363;28;20674;-62
2021/12/08 08:28:52;;;;;;;4.90;2.10;;;5.50;99.90;;;;;;5057264;28;20698;-61
2021/12/08 08:31:27;;;;;;;6.13;2.15;;;5.50;99.90;;;;;;5061272;28;20287;-62
2021/12/08 08:33:56;;;;;;;9.73;2.65;;;5.40;99.90;;;;;;5067224;28;20268;-61
2021/12/08 08:36:29;;;;;;;12.63;2.90;;;5.50;99.90;;;;;;5054146;28;20246;-60
2021/12/08 08:38:59;;;;;;;7.38;2.17;;;5.50;99.90;;;;;;5069768;28;20230;-62
2021/12/08 08:41:32;;;;;;;7.85;2.60;;;5.40;99.90;;;;;;5065712;28;20670;-60
2021/12/08 08:44:04;;;;;;;6.60;2.95;;;5.40;99.90;;;;;;5058222;28;20230;-61
2021/12/08 08:46:38;;;;;;;6.03;2.58;;;5.40;99.90;;;;;;5063281;28;20199;-61
2021/12/08 08:49:11;;;;;;;4.40;2.40;;;5.40;99.90;;;;;;5063249;28;20291;-62
2021/12/08 08:51:45;;;;;;;10.95;3.28;;;5.30;99.90;;;;;;5070100;28;20203;-61
2021/12/08 08:54:20;;;;;;;6.20;2.97;;;5.30;99.90;;;;;;5062114;28;20211;-61
2021/12/08 08:56:55;;;;;;;7.63;2.20;;;5.10;99.90;;;;;;5069401;28;20191;-61
2021/12/08 08:59:27;;;;;;;7.05;1.88;;;5.00;99.90;;;;;;5070098;28;20234;-63
2021/12/08 09:01:57;;;;;;;5.13;2.40;;;5.10;99.90;;;;;;5072947;28;20184;-61
2021/12/08 09:04:30;;;;;;;4.43;2.45;;;5.00;99.90;;;;;;5062699;28;20266;-61
2021/12/08 09:07:02;;;;;;;8.35;2.40;;;5.10;99.90;;;;;;5057146;28;20212;-61
2021/12/08 09:09:34;;;;;;;2.95;2.38;;;5.10;99.90;;;;;;5055406;28;20335;-62
2021/12/08 09:12:07;;;;;;;4.35;2.00;;;5.10;99.90;;;;;;5060155;28;20211;-61
2021/12/08 09:14:39;;;;;;;3.60;1.92;;;5.20;99.90;;;;;;5059921;28;20601;-61
2021/12/08 09:17:11;;;;;;;5.22;2.40;;;5.30;99.90;;;;;;5058159;28;20201;-62
2021/12/08 09:19:45;;;;;;;6.22;1.65;;;5.40;99.90;;;;;;5062633;28;20597;-61
2021/12/08 09:22:18;;;;;;;4.30;1.70;;;5.50;99.90;;;;;;5061989;28;20646;-60
2021/12/08 09:24:54;;;;;;;1.90;1.10;;;5.70;99.90;;;;;;5056265;28;20192;-61
2021/12/08 09:27:26;;;;;;;2.13;2.00;;;5.80;99.90;;;;;;5061251;28;20277;-61
2021/12/08 09:30:01;;;;;;;4.45;1.70;;;5.80;99.90;;;;;;5060115;28;20265;-63
2021/12/08 09:32:36;;;;;;;4.40;1.85;;;5.80;99.90;;;;;;5068868;28;20218;-62
2021/12/08 09:35:10;;;;;;;8.65;1.77;;;5.80;99.90;;;;;;5056494;28;20202;-62
2021/12/08 09:37:45;;;;;;;7.82;1.55;;;5.90;99.90;;;;;;5068492;28;20701;-62
2021/12/08 09:40:22;;;;;;;5.15;1.30;;;5.90;99.90;;;;;;5065229;28;20211;-62
2021/12/08 09:42:54;;;;;;;8.75;1.60;;;5.90;99.90;;;;;;5053164;28;20227;-61
2021/12/08 09:45:27;;;;;;;4.20;1.50;;;6.00;99.90;;;;;;5053946;28;20195;-60
2021/12/08 09:47:56;;;;;;;4.43;1.73;;;6.00;99.90;;;;;;5067015;28;20223;-61
2021/12/08 09:50:24;;;;;;;3.85;1.40;;;6.00;99.90;;;;;;5066262;28;20366;-60
2021/12/08 09:52:53;;;;;;;4.88;1.63;;;6.00;99.90;;;;;;5061548;28;20216;-60
2021/12/08 09:55:21;;;;;;;12.30;2.28;;;5.90;99.90;;;;;;5067180;28;20192;-60
2021/12/08 09:57:49;;;;;;;3.33;1.55;;;5.90;99.90;;;;;;5060597;28;20678;-61
2021/12/08 10:00:23;;;;;;;3.60;1.83;;;6.00;99.90;;;;;;5055521;28;20685;-61
2021/12/08 10:02:57;;;;;;;4.40;1.85;;;6.00;99.90;;;;;;5067136;28;20254;-60
2021/12/08 10:05:29;;;;;;;3.75;1.88;;;6.00;99.90;;;;;;5083894;28;20189;-60
2021/12/08 10:07:59;;;;;;;5.18;1.95;;;6.10;99.90;;;;;;5065512;28;20243;-61
2021/12/08 10:10:29;;;;;;;2.28;1.60;;;6.10;99.90;;;;;;5068177;28;20597;-61
2021/12/08 10:12:58;;;;;;;2.42;1.55;;;6.10;99.90;;;;;;5060976;28;20212;-61
2021/12/08 10:15:27;;;;;;;5.65;1.55;;;6.20;99.90;;;;;;5052875;28;20188;-60
2021/12/08 10:17:57;;;;;;;7.57;2.35;;;6.20;99.90;;;;;;5051099;28;20307;-60
2021/12/08 10:20:30;;;;;;;4.20;1.65;;;6.20;99.90;;;;;;5052427;28;20291;-61
2021/12/08 10:23:13;;;;;;;3.28;1.60;;;6.20;99.90;;;;;;5052547;28;20595;-59
2021/12/08 10:25:44;;;;;;;10.60;2.53;;;6.30;99.90;;;;;;5055445;28;20908;-60
2021/12/08 10:28:15;;;;;;;5.78;2.22;;;6.30;99.90;;;;;;5058314;28;20208;-60
2021/12/08 10:30:48;;;;;;;7.72;3.20;;;6.20;99.90;;;;;;5066358;28;20610;-60
2021/12/08 10:33:52;;;;;;;6.85;1.50;;;6.30;99.90;;;;;;5062337;28;20267;-59
2021/12/08 10:39:12;;;;;;;3.05;1.52;;;6.30;99.90;;;;;;5061913;28;20281;-60
2021/12/08 10:41:52;;;;;;;4.50;1.33;;;6.30;99.90;;;;;;5053463;28;20219;-61
2021/12/08 10:44:50;;;;;;;6.20;1.75;;;6.30;99.90;;;;;;5061632;28;20689;-61
2021/12/08 10:47:28;;;;;;;4.13;1.70;;;6.30;99.90;;;;;;5053788;28;20220;-61
2021/12/08 10:55:39;;;;;;;8.70;2.55;;;6.30;99.90;;;;;;5054567;28;20235;-59
2021/12/08 10:58:20;;;;;;;3.47;1.83;;;6.40;99.90;;;;;;5056172;28;20711;-60
2021/12/08 11:00:49;;;;;;;2.47;1.40;;;6.40;99.90;;;;;;5065465;28;20548;-63
2021/12/08 11:03:17;;;;;;;4.00;1.88;;;6.40;99.90;;;;;;5054786;28;20667;-61
2021/12/08 11:05:52;;;;;;;3.88;1.85;;;6.40;99.90;;;;;;5067874;28;20310;-59
2021/12/08 11:08:30;;;;;;;2.40;1.45;;;6.40;99.90;;;;;;5072682;28;20678;-61
2021/12/08 11:11:01;;;;;;;7.80;1.90;;;6.40;99.90;;;;;;5058576;28;20717;-61
2021/12/08 11:13:33;;;;;;;7.82;3.15;;;6.40;99.90;;;;;;5061935;28;20620;-59
2021/12/08 11:16:06;;;;;;;5.25;2.53;;;6.40;99.90;;;;;;5064126;28;20184;-60
2021/12/08 11:18:39;;;;;;;5.05;3.00;;;6.50;99.90;;;;;;5069979;28;20223;-62
2021/12/08 11:21:18;;;;;;;8.45;2.13;;;6.50;99.90;;;;;;5066767;28;20202;-61
2021/12/08 11:24:13;;;;;;;5.05;1.88;;;6.60;99.90;;;;;;5058976;28;20213;-60
2021/12/08 11:26:46;;;;;;;5.88;2.03;;;6.50;99.90;;;;;;5070979;28;20641;-60
2021/12/08 11:29:16;;;;;;;7.10;1.75;;;6.50;99.90;;;;;;5055370;28;20235;-62
2021/12/08 11:31:47;;;;;;;7.85;1.60;;;6.50;99.90;;;;;;5055753;28;20221;-61
2021/12/08 11:34:18;;;;;;;3.45;1.70;;;6.50;99.90;;;;;;5055456;28;20220;-60
2021/12/08 11:36:50;;;;;;;2.13;1.45;;;6.50;99.90;;;;;;5053396;28;20192;-60
2021/12/08 11:39:22;;;;;;;3.38;1.15;;;6.50;99.90;;;;;;5068896;28;20306;-61
2021/12/08 11:41:53;;;;;;;4.13;1.65;;;6.50;99.90;;;;;;5058374;28;20925;-60
2021/12/08 11:44:24;;;;;;;3.97;1.70;;;6.60;99.90;;;;;;5073344;28;20248;-60
2021/12/08 11:47:03;;;;;;;3.08;1.25;;;6.50;99.90;;;;;;5057099;28;20191;-59
2021/12/08 11:49:32;;;;;;;3.90;1.70;;;6.60;99.90;;;;;;5054870;28;20252;-60
2021/12/08 11:52:05;;;;;;;8.23;1.60;;;6.60;99.90;;;;;;5058311;28;20201;-61
2021/12/08 11:54:42;;;;;;;3.67;1.40;;;6.60;99.90;;;;;;5060162;28;20662;-60
2021/12/08 11:57:14;;;;;;;8.00;2.00;;;6.60;99.90;;;;;;5065323;28;20188;-60
2021/12/08 12:00:00;;;;;;;4.07;1.58;;;6.60;99.90;;;;;;5061751;28;20212;-60
2021/12/08 12:02:33;;;;;;;5.65;2.17;;;6.70;99.90;;;;;;5066206;28;20220;-60
2021/12/08 12:05:05;;;;;;;4.47;1.73;;;6.80;99.90;;;;;;5072489;28;20180;-60
2021/12/08 12:07:33;;;;;;;12.73;1.77;;;6.80;99.90;;;;;;5052194;28;20243;-60
2021/12/08 12:10:05;;;;;;;4.03;1.35;;;6.80;99.90;;;;;;5052716;28;20216;-60
2021/12/08 12:12:37;;;;;;;3.35;2.25;;;6.90;99.90;;;;;;5053305;28;20235;-60
2021/12/08 12:15:06;;;;;;;5.28;2.63;;;6.90;99.90;;;;;;5067618;28;20716;-60
2021/12/08 12:17:34;;;;;;;6.88;2.50;;;7.00;99.90;;;;;;5055949;28;20212;-60
2021/12/08 12:20:07;;;;;;;3.78;2.03;;;7.00;99.90;;;;;;5072294;28;20728;-61
2021/12/08 12:22:45;;;;;;;5.68;1.95;;;7.00;99.90;;;;;;5072027;28;20222;-61
2021/12/08 12:25:23;;;;;;;4.00;1.88;;;7.00;99.90;;;;;;5052105;28;20192;-60
2021/12/08 12:28:14;;;;;;;5.40;2.30;;;7.00;99.90;;;;;;5053429;28;20220;-60
2021/12/08 12:30:50;;;;;;;2.65;1.35;;;6.90;99.90;;;;;;5053702;28;20197;-61
2021/12/08 12:33:22;;;;;;;5.25;2.95;;;6.90;99.90;;;;;;5055068;28;20593;-60
2021/12/08 12:35:52;;;;;;;6.53;1.83;;;7.00;99.90;;;;;;5054588;28;20581;-61
2021/12/08 12:38:35;;;;;;;5.18;1.85;;;7.00;99.90;;;;;;5057394;28;20239;-60
2021/12/08 12:41:06;;;;;;;6.40;2.17;;;7.00;99.90;;;;;;5062797;28;20664;-60
2021/12/08 12:43:38;;;;;;;9.35;3.47;;;7.10;99.90;;;;;;5062932;28;20217;-60
2021/12/08 12:46:12;;;;;;;2.67;1.38;;;7.10;99.90;;;;;;5063562;28;20243;-60
2021/12/08 12:48:50;;;;;;;7.60;2.42;;;7.10;99.90;;;;;;5058728;28;20296;-60
2021/12/08 12:51:21;;;;;;;6.80;2.17;;;7.10;99.90;;;;;;5055618;28;20254;-60
2021/12/08 12:53:58;;;;;;;3.70;1.25;;;7.10;99.90;;;;;;5054677;28;20324;-60
2021/12/08 12:56:53;;;;;;;4.30;1.55;;;7.00;99.90;;;;;;5059925;28;20188;-60
2021/12/08 12:59:25;;;;;;;7.20;1.50;;;7.00;99.90;;;;;;5064161;28;20239;-61
2021/12/08 13:02:06;;;;;;;3.90;1.40;;;7.00;99.90;;;;;;5062031;28;20614;-61
2021/12/08 13:04:35;;;;;;;4.47;1.80;;;7.00;99.90;;;;;;5064343;28;20215;-61
2021/12/08 13:07:05;;;;;;;7.30;1.90;;;7.00;99.90;;;;;;5060521;28;20197;-60
2021/12/08 13:09:51;;;;;;;3.28;1.52;;;7.00;99.90;;;;;;5058942;28;20214;-61
2021/12/08 13:12:26;;;;;;;5.82;1.83;;;7.10;99.90;;;;;;5055033;28;20709;-60
2021/12/08 13:15:13;;;;;;;2.70;1.25;;;7.20;99.90;;;;;;5064736;28;20271;-60
2021/12/08 13:18:00;;;;;;;4.10;1.38;;;7.20;99.90;;;;;;5060966;28;20215;-59
2021/12/08 13:20:33;;;;;;;6.63;3.67;;;7.30;99.90;;;;;;5056153;28;20204;-60
2021/12/08 13:23:03;;;;;;;4.50;1.02;;;7.20;99.90;;;;;;5070467;28;20554;-61
2021/12/08 13:25:50;;;;;;;4.07;0.80;;;7.20;99.90;;;;;;5066231;28;20197;-60
2021/12/08 13:28:32;;;;;;;5.68;1.50;;;7.20;99.90;;;;;;5051957;28;20236;-60
2021/12/08 13:31:09;;;;;;;3.63;1.40;;;7.20;99.90;;;;;;5052261;28;20199;-60
2021/12/08 13:33:40;;;;;;;2.78;1.20;;;7.20;99.90;;;;;;5053189;28;20221;-59
2021/12/08 13:36:36;;;;;;;2.28;1.08;;;7.20;99.90;;;;;;5052915;28;20619;-60
2021/12/08 13:39:11;;;;;;;3.22;1.40;;;7.20;99.90;;;;;;5066757;28;20227;-60
2021/12/08 13:41:42;;;;;;;3.45;1.02;;;7.30;99.90;;;;;;5065374;28;20207;-61
2021/12/08 13:44:23;;;;;;;2.83;0.98;;;7.20;99.90;;;;;;5058543;28;21024;-60
2021/12/08 13:46:53;;;;;;;3.28;1.30;;;7.20;99.90;;;;;;5064731;28;20283;-61
2021/12/08 13:49:24;;;;;;;3.42;1.35;;;7.20;99.90;;;;;;5064941;28;20248;-61
2021/12/08 13:52:17;;;;;;;3.05;1.45;;;7.30;99.90;;;;;;5059273;28;20207;-60
2021/12/08 13:54:47;;;;;;;3.35;1.20;;;7.20;99.90;;;;;;5053924;28;20618;-61